Time;durP1;ratioP1;P1;durP2;ratioP2;P2;SDS_P1;SDS_P2;PMS_P1;PMS_P2;Temp;Humidity;BMP_temperature;BMP_pressure;BME280_temperature;BME280_humidity;BME280_pressure;Samples;Min_cycle;Max_cycle;Signal;HPM_P1;HPM_P2
2022/09/06 00:01:07;;;;;;;1.35;0.20;;;19.30;99.90;;;;;;5023157;28;20022;-87
2022/09/06 00:03:36;;;;;;;0.80;0.05;;;20.50;99.90;;;;;;5022339;28;20036;-87
2022/09/06 00:06:15;;;;;;;0.68;0.32;;;19.00;99.90;;;;;;5023416;28;20017;-88
2022/09/06 00:08:48;;;;;;;0.80;0.00;;;19.10;99.90;;;;;;5024960;28;20536;-87
2022/09/06 00:11:17;;;;;;;0.30;0.00;;;18.90;99.90;;;;;;5025448;28;20037;-88
2022/09/06 00:13:44;;;;;;;0.25;0.00;;;19.50;99.90;;;;;;5045382;28;20089;-87
2022/09/06 00:16:17;;;;;;;0.10;0.00;;;19.30;99.90;;;;;;5027758;28;20390;-87
2022/09/06 00:18:47;;;;;;;0.93;0.08;;;17.90;99.90;;;;;;5027555;28;20433;-87
2022/09/06 00:21:20;;;;;;;3.97;0.50;;;17.10;99.90;;;;;;5044323;28;20049;-87
2022/09/06 00:23:49;;;;;;;0.10;0.00;;;19.10;99.90;;;;;;5026585;28;20037;-89
2022/09/06 00:26:15;;;;;;;1.55;0.10;;;19.20;99.90;;;;;;5030427;28;20120;-89
2022/09/06 00:28:44;;;;;;;0.73;0.10;;;21.40;99.90;;;;;;5048847;28;20100;-90
2022/09/06 00:31:20;;;;;;;1.17;0.00;;;19.20;99.90;;;;;;5030220;28;20115;-90
2022/09/06 00:33:46;;;;;;;1.48;0.20;;;19.40;99.90;;;;;;5029036;28;20033;-89
2022/09/06 00:36:13;;;;;;;0.98;0.10;;;21.00;99.90;;;;;;5029327;28;20025;-89
2022/09/06 00:38:39;;;;;;;0.52;0.17;;;19.00;99.90;;;;;;5046068;28;20072;-87
2022/09/06 00:41:07;;;;;;;0.38;0.10;;;19.10;99.90;;;;;;5028009;28;20027;-89
2022/09/06 00:43:33;;;;;;;0.50;0.20;;;19.00;99.90;;;;;;5025896;28;20017;-88
2022/09/06 00:46:03;;;;;;;2.45;0.32;;;21.50;99.90;;;;;;5028845;28;20033;-89
2022/09/06 00:48:33;;;;;;;1.35;0.30;;;19.40;99.90;;;;;;5050301;28;20092;-91
2022/09/06 00:51:04;;;;;;;3.42;0.75;;;19.60;99.90;;;;;;5031985;28;20036;-88
2022/09/06 00:53:31;;;;;;;2.50;0.30;;;18.90;99.90;;;;;;5031011;28;20075;-88
2022/09/06 00:55:57;;;;;;;2.00;0.20;;;18.90;99.90;;;;;;5034091;28;20033;-89
2022/09/06 00:58:25;;;;;;;0.75;0.30;;;18.80;99.90;;;;;;5031399;28;20079;-89
2022/09/06 01:00:54;;;;;;;0.82;0.20;;;18.80;99.90;;;;;;5048911;28;20025;-88
2022/09/06 01:03:27;;;;;;;1.20;0.10;;;19.20;99.90;;;;;;5046424;28;20021;-89
2022/09/06 01:06:20;;;;;;;1.42;0.10;;;21.40;99.90;;;;;;5045917;28;20030;-89
2022/09/06 01:09:18;;;;;;;1.80;0.45;;;18.80;99.90;;;;;;5049200;28;20101;-88
2022/09/06 01:12:02;;;;;;;0.90;0.20;;;18.80;99.90;;;;;;5027701;28;20037;-88
2022/09/06 01:14:46;;;;;;;1.70;0.10;;;18.80;99.90;;;;;;5044736;28;20037;-89
2022/09/06 01:17:48;;;;;;;0.40;0.20;;;18.70;99.90;;;;;;5024986;28;20030;-89
2022/09/06 01:20:23;;;;;;;0.65;0.10;;;18.70;99.90;;;;;;5043464;28;20021;-88
2022/09/06 01:23:10;;;;;;;1.17;0.40;;;18.70;99.90;;;;;;5024416;28;20030;-89
2022/09/06 01:26:01;;;;;;;3.72;0.30;;;18.70;99.90;;;;;;5042654;28;20047;-88
2022/09/06 01:28:50;;;;;;;2.25;0.30;;;20.30;99.90;;;;;;5023885;28;20556;-88
2022/09/06 01:31:46;;;;;;;1.20;0.43;;;18.70;99.90;;;;;;5023373;28;20041;-88
2022/09/06 01:34:22;;;;;;;1.45;0.03;;;18.70;99.90;;;;;;5024001;28;20112;-88
2022/09/06 01:37:10;;;;;;;2.67;1.08;;;18.90;99.90;;;;;;5023555;28;20037;-88
2022/09/06 01:39:38;;;;;;;2.67;0.30;;;18.80;99.90;;;;;;5041540;28;20038;-87
2022/09/06 01:42:08;;;;;;;0.98;0.30;;;18.50;99.90;;;;;;5024360;28;20379;-87
2022/09/06 01:44:36;;;;;;;1.83;0.22;;;18.50;99.90;;;;;;5043087;28;20493;-87
2022/09/06 01:47:38;;;;;;;;;;;;;;;;;;;;;
2022/09/06 01:50:40;;;;;;;1.58;0.38;;;18.50;99.90;;;;;;5025666;28;20327;-87
2022/09/06 01:53:43;;;;;;;15.55;0.85;;;17.00;99.90;;;;;;5030380;28;20114;-87
2022/09/06 01:56:29;;;;;;;3.03;0.40;;;18.50;99.90;;;;;;5043128;28;20029;-87
2022/09/06 01:59:13;;;;;;;0.73;0.30;;;18.50;99.90;;;;;;5042916;28;20522;-87
2022/09/06 02:01:55;;;;;;;1.83;0.20;;;18.50;99.90;;;;;;5024857;28;20168;-88
2022/09/06 02:04:44;;;;;;;2.03;0.60;;;17.10;99.90;;;;;;5042038;28;20022;-87
2022/09/06 02:07:29;;;;;;;5.13;0.20;;;18.70;99.90;;;;;;5024006;28;20025;-87
2022/09/06 02:10:09;;;;;;;0.32;0.25;;;18.70;99.90;;;;;;5042128;28;20095;-86
2022/09/06 02:12:40;;;;;;;2.08;0.40;;;18.80;99.90;;;;;;5024522;28;20034;-85
2022/09/06 02:15:16;;;;;;;2.17;0.30;;;17.90;99.90;;;;;;5041698;28;20021;-87
2022/09/06 02:17:59;;;;;;;1.05;0.40;;;18.60;99.90;;;;;;5040977;28;20022;-87
2022/09/06 02:20:30;;;;;;;1.52;0.20;;;18.50;99.90;;;;;;5023908;28;20022;-86
2022/09/06 02:23:02;;;;;;;0.50;0.30;;;18.40;99.90;;;;;;5040739;28;20048;-88
2022/09/06 02:25:37;;;;;;;1.17;0.32;;;18.00;99.90;;;;;;5042029;28;20026;-88
2022/09/06 02:28:05;;;;;;;0.57;0.22;;;18.40;99.90;;;;;;5041017;28;20033;-88
2022/09/06 02:30:37;;;;;;;1.27;0.35;;;20.30;99.90;;;;;;5041206;28;20018;-88
2022/09/06 02:33:11;;;;;;;1.45;0.35;;;18.70;99.90;;;;;;5040846;28;20036;-87
2022/09/06 02:35:50;;;;;;;3.70;0.60;;;18.10;99.90;;;;;;5024204;28;20475;-86
2022/09/06 02:38:19;;;;;;;1.45;0.50;;;18.40;99.90;;;;;;5023794;28;20056;-87
2022/09/06 02:40:46;;;;;;;2.15;0.55;;;21.10;99.90;;;;;;5023469;28;20041;-87
2022/09/06 02:43:12;;;;;;;1.65;0.30;;;18.10;99.90;;;;;;5025360;28;20084;-86
2022/09/06 02:45:38;;;;;;;1.67;0.38;;;18.10;99.90;;;;;;5025564;28;20056;-85
2022/09/06 02:48:04;;;;;;;1.75;0.30;;;18.00;99.90;;;;;;5042717;28;20029;-87
2022/09/06 02:50:30;;;;;;;1.75;0.40;;;17.90;99.90;;;;;;5023564;28;20395;-87
2022/09/06 02:53:11;;;;;;;0.90;0.28;;;17.90;99.90;;;;;;5040540;28;20017;-87
2022/09/06 02:55:38;;;;;;;2.08;0.60;;;17.90;99.90;;;;;;5023658;28;20044;-87
2022/09/06 02:58:05;;;;;;;1.00;0.40;;;20.50;99.90;;;;;;5024852;28;20036;-87
2022/09/06 03:00:31;;;;;;;1.70;0.60;;;17.90;99.90;;;;;;5023113;28;20049;-87
2022/09/06 03:02:58;;;;;;;3.03;0.85;;;20.00;99.90;;;;;;5022802;28;20025;-87
2022/09/06 03:05:25;;;;;;;1.38;0.40;;;17.90;99.90;;;;;;5040563;28;20017;-87
2022/09/06 03:07:56;;;;;;;1.80;0.95;;;17.80;99.90;;;;;;5023761;28;20025;-88
2022/09/06 03:10:25;;;;;;;1.58;0.57;;;18.00;99.90;;;;;;5025186;28;20041;-87
2022/09/06 03:12:54;;;;;;;1.38;0.60;;;19.50;99.90;;;;;;5040917;28;20029;-87
2022/09/06 03:15:20;;;;;;;2.20;0.50;;;18.50;99.90;;;;;;5022673;28;20018;-88
2022/09/06 03:17:46;;;;;;;4.60;1.05;;;17.80;99.90;;;;;;5022203;28;20108;-87
2022/09/06 03:20:12;;;;;;;2.25;0.57;;;17.80;99.90;;;;;;5022837;28;20024;-87
2022/09/06 03:22:41;;;;;;;1.65;0.47;;;17.70;99.90;;;;;;5022878;28;20022;-88
2022/09/06 03:25:11;;;;;;;0.35;0.20;;;17.60;99.90;;;;;;5021065;28;20037;-90
2022/09/06 03:27:37;;;;;;;0.75;0.40;;;16.00;99.90;;;;;;5038049;28;20026;-90
2022/09/06 03:30:07;;;;;;;1.05;0.40;;;17.60;99.90;;;;;;5020212;28;20401;-92
2022/09/06 03:32:35;;;;;;;1.10;0.70;;;17.50;99.90;;;;;;5020435;28;20026;-93
2022/09/06 03:35:20;;;;;;;1.60;0.45;;;18.80;99.90;;;;;;5019391;28;20037;-91
2022/09/06 03:37:45;;;;;;;0.85;0.52;;;17.50;99.90;;;;;;5020241;28;20032;-91
2022/09/06 03:40:14;;;;;;;0.88;0.43;;;17.40;99.90;;;;;;5019699;28;20025;-91
2022/09/06 03:42:45;;;;;;;1.48;0.52;;;17.30;99.90;;;;;;5039098;28;20026;-91
2022/09/06 03:45:15;;;;;;;2.15;0.65;;;18.10;99.90;;;;;;5024244;28;20029;-91
2022/09/06 03:47:43;;;;;;;1.90;0.68;;;17.70;99.90;;;;;;5024023;28;20029;-90
2022/09/06 03:50:09;;;;;;;0.82;0.32;;;17.90;99.90;;;;;;5024615;28;20537;-91
2022/09/06 03:52:35;;;;;;;1.48;0.45;;;17.20;99.90;;;;;;5024121;28;20068;-91
2022/09/06 03:55:05;;;;;;;0.93;0.40;;;17.30;99.90;;;;;;5024431;28;20034;-91
2022/09/06 03:57:40;;;;;;;2.30;0.63;;;16.20;99.90;;;;;;5024325;28;20113;-91
2022/09/06 04:00:06;;;;;;;2.22;0.75;;;17.30;99.90;;;;;;5016492;23;20500;-75
2022/09/06 04:02:32;;;;;;;1.50;0.65;;;17.30;99.90;;;;;;4999306;28;20075;-73
2022/09/06 04:04:58;;;;;;;1.30;1.17;;;17.30;99.90;;;;;;5017529;28;20479;-73
2022/09/06 04:07:27;;;;;;;2.08;1.00;;;17.30;99.90;;;;;;5016996;28;20072;-72
2022/09/06 04:09:53;;;;;;;1.63;1.15;;;17.40;99.90;;;;;;4999267;28;20018;-72
2022/09/06 04:12:18;;;;;;;3.40;1.67;;;17.40;99.90;;;;;;5017212;28;20111;-73
2022/09/06 04:14:44;;;;;;;1.50;1.00;;;17.30;99.90;;;;;;4999363;28;20495;-72
2022/09/06 04:17:11;;;;;;;3.20;1.02;;;17.40;99.90;;;;;;5017003;28;20498;-72
2022/09/06 04:19:40;;;;;;;1.30;1.00;;;17.30;99.90;;;;;;5017172;28;20037;-73
2022/09/06 04:22:06;;;;;;;1.58;1.20;;;17.30;99.90;;;;;;4999556;28;20494;-73
2022/09/06 04:24:31;;;;;;;2.03;1.20;;;17.20;99.90;;;;;;4999382;28;20434;-73
2022/09/06 04:26:57;;;;;;;1.83;0.90;;;17.30;99.90;;;;;;4999276;28;20018;-72
2022/09/06 04:29:23;;;;;;;1.48;0.80;;;17.20;99.90;;;;;;4999328;28;20021;-73
2022/09/06 04:31:56;;;;;;;4.68;1.33;;;17.20;99.90;;;;;;5016535;28;20097;-73
2022/09/06 04:34:24;;;;;;;3.47;1.30;;;17.10;99.90;;;;;;5016668;28;20037;-73
2022/09/06 04:36:50;;;;;;;4.00;1.30;;;17.60;99.90;;;;;;5017173;28;20057;-73
2022/09/06 04:39:15;;;;;;;2.38;1.50;;;17.10;99.90;;;;;;5017432;28;20065;-72
2022/09/06 04:41:48;;;;;;;3.47;2.22;;;17.10;99.90;;;;;;5016935;28;20022;-72
2022/09/06 04:44:14;;;;;;;2.38;1.27;;;17.10;99.90;;;;;;4999217;28;20376;-72
2022/09/06 04:46:41;;;;;;;2.05;1.13;;;17.10;99.90;;;;;;5017148;28;20025;-74
2022/09/06 04:49:07;;;;;;;1.75;1.25;;;17.00;99.90;;;;;;4998400;28;20030;-73
2022/09/06 04:51:33;;;;;;;3.40;1.52;;;17.00;99.90;;;;;;5016155;28;20029;-74
2022/09/06 04:53:58;;;;;;;2.22;1.17;;;17.00;99.90;;;;;;4997938;28;20026;-73
2022/09/06 04:56:25;;;;;;;5.35;1.52;;;16.90;99.90;;;;;;4998332;28;20030;-74
2022/09/06 04:58:53;;;;;;;4.07;1.63;;;16.90;99.90;;;;;;5015827;28;20026;-74
2022/09/06 05:01:21;;;;;;;3.35;1.67;;;16.90;99.90;;;;;;4998235;28;20502;-74
2022/09/06 05:03:50;;;;;;;;;;;16.90;99.90;;;;;;4998386;28;20101;-75
2022/09/06 05:06:20;;;;;;;;;;;16.90;99.90;;;;;;5016246;28;19912;-74
2022/09/06 05:08:49;;;;;;;5.28;2.05;;;16.90;99.90;;;;;;5015853;28;19905;-74
2022/09/06 05:11:14;;;;;;;3.20;1.70;;;16.90;99.90;;;;;;5031595;23;20029;-72
2022/09/06 05:13:41;;;;;;;6.15;2.47;;;16.80;99.90;;;;;;5035442;28;20022;-73
2022/09/06 05:16:10;;;;;;;4.32;1.92;;;16.80;99.90;;;;;;5035733;28;20449;-73
2022/09/06 05:18:36;;;;;;;4.85;2.53;;;16.80;99.90;;;;;;5035371;28;20026;-73
2022/09/06 05:21:02;;;;;;;4.03;2.50;;;16.70;99.90;;;;;;5017695;28;20052;-74
2022/09/06 05:23:27;;;;;;;4.40;2.70;;;16.80;99.90;;;;;;5035468;28;20470;-74
2022/09/06 05:25:53;;;;;;;4.75;1.88;;;16.80;99.90;;;;;;5017465;28;20112;-75
2022/09/06 05:28:22;;;;;;;4.72;3.13;;;16.70;99.90;;;;;;5035465;28;20501;-75
2022/09/06 05:30:48;;;;;;;4.15;2.97;;;16.70;99.90;;;;;;5035708;28;20507;-73
2022/09/06 05:33:19;;;;;;;4.25;3.03;;;16.80;99.90;;;;;;5035629;28;20116;-72
2022/09/06 05:35:52;;;;;;;10.45;3.97;;;16.80;99.90;;;;;;5036114;28;20029;-72
2022/09/06 05:38:18;;;;;;;9.05;3.05;;;16.80;99.90;;;;;;5035673;28;20034;-72
2022/09/06 05:40:43;;;;;;;9.18;3.67;;;16.80;99.90;;;;;;5017285;28;20067;-73
2022/09/06 05:43:09;;;;;;;5.10;3.25;;;16.90;99.90;;;;;;5035298;28;20052;-75
2022/09/06 05:45:40;;;;;;;6.75;3.85;;;17.00;99.90;;;;;;5034974;28;20021;-73
2022/09/06 05:48:09;;;;;;;6.03;3.40;;;17.00;99.90;;;;;;5035599;28;20104;-73
2022/09/06 05:50:40;;;;;;;8.57;3.30;;;17.10;99.90;;;;;;5034177;28;20471;-74
2022/09/06 05:53:13;;;;;;;3.88;3.03;;;17.00;99.90;;;;;;5034749;28;20032;-74
2022/09/06 05:55:39;;;;;;;5.97;3.58;;;17.20;99.90;;;;;;5016809;28;20119;-74
2022/09/06 05:58:04;;;;;;;6.15;3.40;;;17.20;99.90;;;;;;5034411;28;20128;-74
2022/09/06 06:00:30;;;;;;;7.03;3.95;;;17.20;99.90;;;;;;5034483;28;20034;-74
2022/09/06 06:02:55;;;;;;;8.32;4.30;;;17.20;99.90;;;;;;5034342;28;20056;-74
2022/09/06 06:05:21;;;;;;;7.00;4.15;;;17.40;99.90;;;;;;5033727;28;20025;-74
2022/09/06 06:07:47;;;;;;;8.25;3.65;;;17.40;99.90;;;;;;5034525;28;20052;-74
2022/09/06 06:10:12;;;;;;;9.35;4.05;;;17.50;99.90;;;;;;5034405;28;20037;-74
2022/09/06 06:12:38;;;;;;;9.75;3.80;;;17.60;99.90;;;;;;5034942;28;20030;-76
2022/09/06 06:15:04;;;;;;;5.00;3.65;;;17.60;99.90;;;;;;5034156;28;20018;-73
2022/09/06 06:17:30;;;;;;;5.95;4.13;;;17.70;99.90;;;;;;5034269;28;20025;-74
2022/09/06 06:19:58;;;;;;;7.07;4.18;;;17.70;99.90;;;;;;5034152;28;20079;-73
2022/09/06 06:22:24;;;;;;;8.75;3.78;;;17.80;99.90;;;;;;5034579;28;20043;-74
2022/09/06 06:24:49;;;;;;;6.65;3.40;;;17.90;99.90;;;;;;5033930;28;20127;-73
2022/09/06 06:27:15;;;;;;;6.82;3.67;;;17.90;99.90;;;;;;5034164;28;20022;-73
2022/09/06 06:29:40;;;;;;;6.03;3.80;;;18.00;99.90;;;;;;5033913;28;20107;-73
2022/09/06 06:32:06;;;;;;;4.05;2.80;;;18.00;99.90;;;;;;5034467;28;20031;-74
2022/09/06 06:34:32;;;;;;;7.75;4.03;;;18.10;99.90;;;;;;5015980;28;20025;-73
2022/09/06 06:36:57;;;;;;;5.15;3.25;;;18.20;99.90;;;;;;5016158;28;20029;-74
2022/09/06 06:39:23;;;;;;;6.43;4.18;;;18.30;99.90;;;;;;5033866;28;20021;-73
2022/09/06 06:41:52;;;;;;;7.88;4.60;;;18.50;99.90;;;;;;5033682;28;20028;-73
2022/09/06 06:44:20;;;;;;;4.55;3.65;;;18.70;99.90;;;;;;5033744;28;20534;-73
2022/09/06 06:46:45;;;;;;;6.77;3.73;;;18.60;99.90;;;;;;5033707;28;20017;-73
2022/09/06 06:49:11;;;;;;;8.07;3.42;;;18.70;99.90;;;;;;5033792;28;20079;-76
2022/09/06 06:51:40;;;;;;;6.18;3.95;;;18.90;99.90;;;;;;5033809;28;20095;-73
2022/09/06 06:54:06;;;;;;;6.85;3.70;;;19.00;99.90;;;;;;5033444;28;20023;-73
2022/09/06 06:56:36;;;;;;;5.85;3.40;;;19.10;99.90;;;;;;5033767;28;20026;-74
2022/09/06 06:59:04;;;;;;;8.20;3.75;;;19.20;99.90;;;;;;5033618;28;20021;-73
2022/09/06 07:01:31;;;;;;;5.20;3.55;;;19.30;99.90;;;;;;5015782;28;20021;-73
2022/09/06 07:03:57;;;;;;;7.97;3.78;;;19.40;99.90;;;;;;5033374;28;20048;-73
2022/09/06 07:06:27;;;;;;;4.70;3.30;;;19.50;99.90;;;;;;5033445;28;20021;-73
2022/09/06 07:08:54;;;;;;;5.63;3.53;;;19.60;99.90;;;;;;5033350;28;20022;-73
2022/09/06 07:11:21;;;;;;;8.27;3.10;;;19.70;99.90;;;;;;5033346;28;20076;-74
2022/09/06 07:13:46;;;;;;;5.25;3.17;;;19.80;99.90;;;;;;5033568;28;20025;-74
2022/09/06 07:16:21;;;;;;;10.38;3.95;;;19.90;99.90;;;;;;5033503;28;20017;-74
2022/09/06 07:18:51;;;;;;;3.72;2.60;;;20.00;99.90;;;;;;5033405;28;20029;-73
2022/09/06 07:21:26;;;;;;;4.95;2.83;;;20.10;99.90;;;;;;5033373;28;20024;-74
2022/09/06 07:23:55;;;;;;;10.82;2.65;;;20.20;99.90;;;;;;5033542;28;20014;-73
2022/09/06 07:26:26;;;;;;;3.88;2.90;;;20.30;99.90;;;;;;5015419;28;20022;-74
2022/09/06 07:28:59;;;;;;;8.60;3.60;;;20.40;99.90;;;;;;5033588;28;20049;-74
2022/09/06 07:31:30;;;;;;;6.20;3.20;;;20.60;99.90;;;;;;5015540;28;20057;-73
2022/09/06 07:34:00;;;;;;;4.50;3.15;;;20.70;99.90;;;;;;5015384;28;20083;-73
2022/09/06 07:36:26;;;;;;;7.03;3.10;;;20.80;99.90;;;;;;5033711;28;20049;-74
2022/09/06 07:38:52;;;;;;;8.80;3.00;;;20.80;99.90;;;;;;5033044;28;20057;-74
2022/09/06 07:41:22;;;;;;;5.53;2.75;;;20.90;99.90;;;;;;5033257;28;20466;-74
2022/09/06 07:43:53;;;;;;;2.90;2.20;;;21.00;99.90;;;;;;5032865;28;20028;-74
2022/09/06 07:46:19;;;;;;;4.97;3.28;;;21.00;99.90;;;;;;5015345;28;20449;-74
2022/09/06 07:48:45;;;;;;;5.47;2.35;;;21.10;99.90;;;;;;5032973;28;20029;-74
2022/09/06 07:51:20;;;;;;;7.10;3.30;;;21.10;99.90;;;;;;5015231;28;20486;-73
2022/09/06 07:53:52;;;;;;;2.40;1.88;;;21.20;99.90;;;;;;5032852;28;20022;-73
2022/09/06 07:56:21;;;;;;;4.72;2.83;;;22.40;99.90;;;;;;5033216;28;20092;-73
2022/09/06 07:58:51;;;;;;;6.45;2.72;;;21.40;99.90;;;;;;5015214;28;20124;-74
2022/09/06 08:01:28;;;;;;;4.72;2.47;;;21.50;99.90;;;;;;5033474;28;20091;-74
2022/09/06 08:03:59;;;;;;;4.60;3.10;;;21.60;99.90;;;;;;5032820;28;20022;-73
2022/09/06 08:06:26;;;;;;;5.13;2.10;;;21.60;99.90;;;;;;5032196;28;20121;-73
2022/09/06 08:08:53;;;;;;;3.75;2.67;;;21.70;99.90;;;;;;5032794;28;20025;-73
2022/09/06 08:11:19;;;;;;;5.25;2.65;;;21.70;99.90;;;;;;5032582;28;20140;-73
2022/09/06 08:13:49;;;;;;;4.90;2.70;;;21.80;99.90;;;;;;5032657;28;20052;-73
2022/09/06 08:16:15;;;;;;;7.07;2.83;;;21.90;99.90;;;;;;5015088;28;20021;-74
2022/09/06 08:18:41;;;;;;;5.50;3.05;;;21.90;99.90;;;;;;5033020;28;20024;-73
2022/09/06 08:21:14;;;;;;;4.68;3.03;;;22.00;99.90;;;;;;5032911;28;20099;-73
2022/09/06 08:23:44;;;;;;;4.60;3.00;;;22.10;99.90;;;;;;5032553;28;20029;-73
2022/09/06 08:26:16;;;;;;;5.07;3.25;;;22.10;99.90;;;;;;5032637;28;20022;-72
2022/09/06 08:28:42;;;;;;;4.85;2.90;;;22.20;99.90;;;;;;5016131;28;20030;-74
2022/09/06 08:31:13;;;;;;;4.80;2.38;;;22.20;99.90;;;;;;5018475;28;20021;-74
2022/09/06 08:33:39;;;;;;;6.20;3.22;;;22.30;99.90;;;;;;5036087;28;20036;-73
2022/09/06 08:36:06;;;;;;;5.75;2.65;;;22.40;99.90;;;;;;5018341;28;20043;-73
2022/09/06 08:38:34;;;;;;;3.15;2.35;;;22.50;99.90;;;;;;5035994;28;20029;-74
2022/09/06 08:41:10;;;;;;;4.82;2.55;;;22.60;99.90;;;;;;5018312;28;20017;-73
2022/09/06 08:43:51;;;;;;;18.55;2.40;;;22.70;99.90;;;;;;5036453;28;20028;-74
2022/09/06 08:46:20;;;;;;;5.63;1.92;;;23.10;99.90;;;;;;5018143;28;20116;-74
2022/09/06 08:48:46;;;;;;;5.40;2.10;;;23.00;99.90;;;;;;5018022;28;20026;-73
2022/09/06 08:51:41;;;;;;;2.92;2.30;;;23.10;99.90;;;;;;5035860;28;20087;-73
2022/09/06 08:54:27;;;;;;;4.63;2.28;;;23.00;99.90;;;;;;5035670;28;20032;-75
2022/09/06 08:57:17;;;;;;;3.60;2.50;;;23.30;99.90;;;;;;5035290;28;20045;-74
2022/09/06 08:59:43;;;;;;;3.97;1.48;;;23.40;99.90;;;;;;5035944;28;20029;-75
2022/09/06 09:02:08;;;;;;;5.70;2.30;;;23.40;99.90;;;;;;5017793;28;20028;-74
2022/09/06 09:04:39;;;;;;;3.63;2.58;;;23.50;99.90;;;;;;5035544;28;20030;-74
2022/09/06 09:07:24;;;;;;;7.03;2.85;;;23.50;99.90;;;;;;5035893;28;20021;-75
2022/09/06 09:09:51;;;;;;;3.60;2.35;;;23.50;99.90;;;;;;5036066;28;20029;-74
2022/09/06 09:12:20;;;;;;;4.30;2.38;;;23.70;99.90;;;;;;5035409;28;20120;-74
2022/09/06 09:14:49;;;;;;;7.18;2.17;;;23.80;99.90;;;;;;5035513;28;20041;-74
2022/09/06 09:17:26;;;;;;;3.97;2.42;;;23.90;99.90;;;;;;5036014;28;20018;-74
2022/09/06 09:19:51;;;;;;;4.75;1.95;;;24.10;99.90;;;;;;5035440;28;20034;-74
2022/09/06 09:22:21;;;;;;;5.07;2.20;;;24.30;99.90;;;;;;5035185;28;20021;-74
2022/09/06 09:24:51;;;;;;;8.50;2.28;;;24.40;99.90;;;;;;5035270;28;20394;-74
2022/09/06 09:27:27;;;;;;;5.47;2.65;;;24.40;99.90;;;;;;5035805;28;20017;-75
2022/09/06 09:29:52;;;;;;;4.00;2.00;;;24.60;99.90;;;;;;5017425;28;20057;-75
2022/09/06 09:32:33;;;;;;;3.38;2.38;;;24.70;99.90;;;;;;5036131;28;20037;-74
2022/09/06 09:35:36;;;;;;;2.67;2.15;;;24.70;99.90;;;;;;5034820;28;20108;-74
2022/09/06 09:38:07;;;;;;;3.40;2.50;;;25.00;99.90;;;;;;5035173;28;20029;-74
2022/09/06 09:40:49;;;;;;;2.00;1.80;;;24.70;99.90;;;;;;5016097;28;20022;-74
2022/09/06 09:43:16;;;;;;;4.90;2.28;;;24.80;99.90;;;;;;5017067;28;20538;-74
2022/09/06 09:45:48;;;;;;;3.97;1.77;;;24.80;99.90;;;;;;5034695;28;20498;-74
2022/09/06 09:48:26;;;;;;;5.00;2.10;;;24.80;99.90;;;;;;5034604;28;20032;-74
2022/09/06 09:50:53;;;;;;;2.95;2.00;;;24.90;99.90;;;;;;5035201;28;20364;-73
2022/09/06 09:53:22;;;;;;;3.65;1.83;;;24.90;99.90;;;;;;5034572;28;20022;-75
2022/09/06 09:55:54;;;;;;;4.88;1.60;;;24.80;99.90;;;;;;5034616;28;20442;-74
2022/09/06 09:58:33;;;;;;;4.50;1.60;;;24.90;99.90;;;;;;5016750;28;20017;-74
2022/09/06 10:01:09;;;;;;;5.55;2.03;;;25.00;99.90;;;;;;5034704;28;20084;-74
2022/09/06 10:03:35;;;;;;;2.25;1.75;;;25.20;99.90;;;;;;5034392;28;20449;-74
2022/09/06 10:06:01;;;;;;;4.03;2.13;;;25.20;99.90;;;;;;5034691;28;20558;-73
2022/09/06 10:08:31;;;;;;;2.50;1.98;;;25.20;99.90;;;;;;5034654;28;20028;-74
2022/09/06 10:10:57;;;;;;;3.33;1.65;;;25.10;99.90;;;;;;5034449;28;20034;-72
2022/09/06 10:13:28;;;;;;;4.60;1.38;;;25.00;99.90;;;;;;5034734;28;20025;-72
2022/09/06 10:15:55;;;;;;;2.45;1.30;;;25.00;99.90;;;;;;5034118;28;20075;-72
2022/09/06 10:18:31;;;;;;;4.00;0.20;;;25.20;99.90;;;;;;5034174;28;20029;-71
2022/09/06 10:21:06;;;;;;;1.42;0.20;;;25.40;99.90;;;;;;5034343;28;20026;-71
2022/09/06 10:23:50;;;;;;;2.80;0.30;;;25.50;99.90;;;;;;5034526;28;20022;-71
2022/09/06 10:26:28;;;;;;;3.50;0.80;;;25.60;99.90;;;;;;5034538;28;20115;-71
2022/09/06 10:29:04;;;;;;;3.10;0.90;;;25.70;99.90;;;;;;5034198;28;20037;-72
2022/09/06 10:31:38;;;;;;;1.88;0.70;;;25.80;99.90;;;;;;5033945;28;20021;-72
2022/09/06 10:34:12;;;;;;;1.80;0.32;;;25.90;99.90;;;;;;5033871;28;20104;-71
2022/09/06 10:36:44;;;;;;;2.20;0.10;;;26.10;99.90;;;;;;5033833;28;20083;-71
2022/09/06 10:39:42;;;;;;;0.65;0.47;;;26.30;99.90;;;;;;5033726;28;20021;-71
2022/09/06 10:42:31;;;;;;;2.85;0.55;;;26.40;99.90;;;;;;5034159;28;20024;-72
2022/09/06 10:45:34;;;;;;;3.22;0.63;;;26.60;99.90;;;;;;5033704;28;20112;-73
2022/09/06 10:48:12;;;;;;;3.95;1.08;;;26.60;99.90;;;;;;5033895;28;20044;-72
2022/09/06 10:50:53;;;;;;;1.83;0.50;;;26.50;99.70;;;;;;5034042;28;20037;-72
2022/09/06 10:53:21;;;;;;;1.73;0.75;;;26.30;99.80;;;;;;5033585;28;20108;-72
2022/09/06 10:56:00;;;;;;;5.15;0.70;;;26.40;99.90;;;;;;5033512;28;20491;-72
2022/09/06 10:58:30;;;;;;;1.38;0.57;;;26.40;99.90;;;;;;5033521;28;20018;-73
2022/09/06 11:00:58;;;;;;;3.35;0.75;;;26.70;99.60;;;;;;5033470;28;20087;-72
2022/09/06 11:03:37;;;;;;;5.07;1.45;;;26.80;99.70;;;;;;5034091;28;20048;-72
2022/09/06 11:06:07;;;;;;;1.45;0.88;;;26.90;98.60;;;;;;5033417;28;20471;-72
2022/09/06 11:08:43;;;;;;;2.20;0.40;;;26.80;98.20;;;;;;5015637;28;20080;-72
2022/09/06 11:11:38;;;;;;;2.08;0.70;;;26.90;99.90;;;;;;5033563;28;20043;-73
2022/09/06 11:14:10;;;;;;;2.50;0.20;;;27.10;97.60;;;;;;5033955;28;20033;-71
2022/09/06 11:16:46;;;;;;;1.33;0.40;;;27.20;97.50;;;;;;5033489;28;20026;-73
2022/09/06 11:19:21;;;;;;;3.08;0.22;;;27.30;96.80;;;;;;5033252;28;20025;-72
2022/09/06 11:22:05;;;;;;;0.90;0.40;;;27.40;96.50;;;;;;5015583;28;20025;-72
2022/09/06 11:25:22;;;;;;;1.88;0.60;;;27.60;97.40;;;;;;5033129;28;20140;-73
2022/09/06 11:27:56;;;;;;;5.45;1.00;;;27.80;96.20;;;;;;4989413;28;20034;-72
2022/09/06 11:30:24;;;;;;;3.90;0.82;;;27.90;95.60;;;;;;5033357;28;20021;-72
2022/09/06 11:33:09;;;;;;;4.85;1.88;;;28.00;96.00;;;;;;5033828;28;20030;-72
2022/09/06 11:35:36;;;;;;;2.70;1.30;;;27.90;95.20;;;;;;5015256;28;20045;-72
2022/09/06 11:38:06;;;;;;;3.40;1.33;;;27.80;95.20;;;;;;5033332;28;20028;-72
2022/09/06 11:40:40;;;;;;;1.00;0.85;;;27.60;94.90;;;;;;5015375;28;20179;-71
2022/09/06 11:43:11;;;;;;;2.28;1.50;;;27.40;96.50;;;;;;5015524;28;20116;-72
2022/09/06 11:45:45;;;;;;;4.22;1.08;;;27.40;96.40;;;;;;5033032;28;20028;-72
2022/09/06 11:48:22;;;;;;;1.75;0.98;;;27.60;96.20;;;;;;5015461;28;20555;-72
2022/09/06 11:50:57;;;;;;;4.85;2.50;;;27.60;97.20;;;;;;5033093;28;20029;-72
2022/09/06 11:53:25;;;;;;;3.88;2.20;;;27.90;95.30;;;;;;5033654;28;20036;-72
2022/09/06 11:56:10;;;;;;;3.85;2.78;;;27.60;96.50;;;;;;5032871;28;20021;-72
2022/09/06 11:58:39;;;;;;;3.60;2.38;;;27.50;96.20;;;;;;5015296;28;20032;-73
2022/09/06 12:01:15;;;;;;;4.70;2.55;;;27.70;95.90;;;;;;5032939;28;20102;-72
2022/09/06 12:03:40;;;;;;;5.00;1.83;;;28.00;96.60;;;;;;5034068;28;20530;-72
2022/09/06 12:06:20;;;;;;;4.25;2.25;;;28.40;96.00;;;;;;5019013;28;20095;-72
2022/09/06 12:08:53;;;;;;;5.07;3.17;;;28.70;95.40;;;;;;5036607;28;20033;-72
2022/09/06 12:11:36;;;;;;;5.50;3.50;;;28.70;94.30;;;;;;5037492;28;20033;-72
2022/09/06 12:14:33;;;;;;;6.18;2.92;;;28.30;94.80;;;;;;5037385;28;20036;-72
2022/09/06 12:16:59;;;;;;;3.00;2.13;;;27.90;95.90;;;;;;5036328;28;20068;-72
2022/09/06 12:20:05;;;;;;;6.60;2.83;;;28.10;97.10;;;;;;5036637;28;20037;-72
2022/09/06 12:22:39;;;;;;;4.40;2.60;;;28.60;96.30;;;;;;5036304;28;20026;-72
2022/09/06 12:25:39;;;;;;;5.72;2.38;;;29.10;95.00;;;;;;5036256;28;20014;-72
2022/09/06 12:28:10;;;;;;;3.75;1.98;;;29.50;93.70;;;;;;5004288;28;20037;-72
2022/09/06 12:30:43;;;;;;;4.13;1.83;;;29.90;94.40;;;;;;5036294;28;20021;-72
2022/09/06 12:33:32;;;;;;;5.32;2.50;;;30.10;92.90;;;;;;5036870;28;20060;-72
2022/09/06 12:36:20;;;;;;;3.40;1.80;;;33.20;93.10;;;;;;5036040;28;20041;-71
2022/09/06 12:39:01;;;;;;;2.55;1.10;;;29.70;92.60;;;;;;5018294;28;20025;-73
2022/09/06 12:41:30;;;;;;;5.82;1.67;;;29.80;92.30;;;;;;5036294;28;20061;-73
2022/09/06 12:43:59;;;;;;;3.17;0.90;;;30.10;91.00;;;;;;5036221;28;20021;-73
2022/09/06 12:46:28;;;;;;;1.35;0.80;;;30.40;91.40;;;;;;5018183;28;20021;-73
2022/09/06 12:49:06;;;;;;;3.28;0.95;;;30.80;91.40;;;;;;5036237;28;20470;-71
2022/09/06 12:51:32;;;;;;;2.33;1.08;;;31.20;85.30;;;;;;5036156;28;20080;-71
2022/09/06 12:54:03;;;;;;;1.52;0.85;;;30.70;85.70;;;;;;5036103;28;20095;-72
2022/09/06 12:56:36;;;;;;;3.25;1.40;;;30.70;89.50;;;;;;5035748;28;20109;-72
2022/09/06 12:59:13;;;;;;;5.72;1.83;;;30.60;87.40;;;;;;5035760;28;20068;-72
2022/09/06 13:01:43;;;;;;;2.25;1.25;;;30.70;87.00;;;;;;5035959;28;20048;-72
2022/09/06 13:04:17;;;;;;;1.92;0.60;;;31.00;87.00;;;;;;5018152;28;20506;-72
2022/09/06 13:06:52;;;;;;;5.32;2.25;;;31.20;84.90;;;;;;5035752;28;20391;-72
2022/09/06 13:09:19;;;;;;;2.25;1.08;;;31.40;85.20;;;;;;5036290;28;20040;-73
2022/09/06 13:11:50;;;;;;;3.90;0.82;;;31.70;83.40;;;;;;5035292;28;20120;-72
2022/09/06 13:14:24;;;;;;;1.27;0.95;;;31.80;81.00;;;;;;5035463;28;20032;-72